TimeCST,TemperatureF,Dew PointF,Humidity,Sea Level PressureIn,VisibilityMPH,Wind Direction,Wind SpeedMPH,Gust SpeedMPH,PrecipitationIn,Events,Conditions,WindDirDegrees,DateUTC
12:54 AM,28.9,23.0,78,29.99,10.0,Calm,Calm,-,N/A,,Overcast,0,2012-12-20 06:54:00
1:54 AM,28.0,23.0,81,29.98,10.0,Calm,Calm,-,N/A,,Overcast,0,2012-12-20 07:54:00
2:54 AM,28.0,23.0,81,29.98,10.0,ESE,3.5,-,N/A,,Overcast,110,2012-12-20 08:54:00
3:27 AM,28.4,23.0,80,29.90,10.0,Calm,Calm,-,N/A,,Overcast,0,2012-12-20 09:27:00
3:51 AM,28.4,23.0,80,29.90,10.0,North,4.6,-,N/A,,Overcast,10,2012-12-20 09:51:00
3:54 AM,28.0,23.0,81,29.95,10.0,North,5.8,-,N/A,,Overcast,10,2012-12-20 09:54:00
4:38 AM,28.4,23.0,80,29.85,10.0,North,5.8,-,N/A,,Overcast,10,2012-12-20 10:38:00
4:54 AM,28.0,23.0,81,29.90,10.0,NNE,5.8,-,N/A,,Overcast,30,2012-12-20 10:54:00
5:24 AM,28.4,23.0,80,29.83,4.0,North,5.8,-,0.00,Snow,Light Snow,10,2012-12-20 11:24:00
5:54 AM,28.0,24.1,85,29.86,4.0,NNE,4.6,-,0.00,Snow,Light Snow,20,2012-12-20 11:54:00
6:04 AM,28.4,24.8,86,29.82,2.0,NNE,3.5,-,0.00,Snow,Light Snow,20,2012-12-20 12:04:00
6:12 AM,28.4,24.8,86,29.81,1.2,NNE,4.6,-,0.00,Snow,Light Snow,20,2012-12-20 12:12:00
6:54 AM,28.0,25.0,88,29.84,1.5,North,4.6,-,0.00,Snow,Light Snow,10,2012-12-20 12:54:00
7:17 AM,28.4,24.8,86,29.77,2.0,NNE,4.6,-,0.00,Snow,Light Snow,20,2012-12-20 13:17:00
7:25 AM,28.4,24.8,86,29.77,1.5,NNE,5.8,-,0.00,Snow,Light Snow,30,2012-12-20 13:25:00
7:40 AM,28.4,24.8,86,29.76,1.0,NNE,4.6,-,0.00,Snow,Light Snow,20,2012-12-20 13:40:00
7:54 AM,28.0,25.0,88,29.80,1.0,NNE,6.9,-,0.00,Snow,Light Snow,20,2012-12-20 13:54:00
8:11 AM,28.4,26.6,93,29.74,0.5,NNE,9.2,-,0.01,Fog-Snow,Snow,20,2012-12-20 14:11:00
8:33 AM,28.4,26.6,93,29.72,0.8,NNE,9.2,-,0.01,Snow,Light Snow,20,2012-12-20 14:33:00
8:54 AM,28.0,26.1,92,29.76,0.5,NNE,11.5,16.1,0.01,Fog-Snow,Snow,20,2012-12-20 14:54:00
9:42 AM,28.4,26.6,93,29.70,0.5,North,9.2,-,0.00,Fog-Snow,Snow,10,2012-12-20 15:42:00
9:54 AM,28.9,27.0,92,29.74,0.5,NNE,10.4,-,0.00,Fog-Snow,Snow,20,2012-12-20 15:54:00
10:33 AM,30.2,28.4,93,29.66,0.2,North,10.4,-,0.01,Fog-Snow,Snow,10,2012-12-20 16:33:00
10:37 AM,30.2,28.4,93,29.65,0.2,NNE,10.4,-,0.01,Fog-Snow,Snow,20,2012-12-20 16:37:00
10:54 AM,30.0,28.0,92,29.68,0.5,North,10.4,-,0.02,Fog-Snow,Snow,360,2012-12-20 16:54:00
11:54 AM,32.0,30.0,92,29.63,0.5,North,13.8,24.2,0.01,Fog-Snow,Snow,10,2012-12-20 17:54:00
12:04 PM,32.0,30.2,93,29.57,0.2,NNE,13.8,20.7,0.00,Fog-Snow,Snow,20,2012-12-20 18:04:00
12:20 PM,32.0,30.2,93,29.56,0.5,NNE,15.0,20.7,0.01,Fog-Snow,Snow,20,2012-12-20 18:20:00
12:54 PM,32.0,30.0,92,29.58,0.5,North,13.8,24.2,0.01,Fog-Snow,Snow,10,2012-12-20 18:54:00
1:54 PM,32.0,30.0,92,29.55,0.2,North,12.7,23.0,0.00,Fog-Snow,Snow,10,2012-12-20 19:54:00
2:09 PM,32.0,30.2,93,29.50,0.5,NNE,13.8,-,0.00,Fog-Snow,Snow,20,2012-12-20 20:09:00
2:16 PM,32.0,30.2,93,29.50,0.2,NNE,15.0,-,0.00,Fog-Snow,Snow,20,2012-12-20 20:16:00
2:38 PM,32.0,30.2,93,29.49,0.5,North,16.1,23.0,0.01,Fog-Snow,Snow,10,2012-12-20 20:38:00
2:54 PM,32.0,30.0,92,29.53,0.5,NNE,12.7,23.0,0.01,Fog-Snow,Snow,20,2012-12-20 20:54:00
3:07 PM,32.0,30.2,93,29.48,0.2,NNE,17.3,25.3,0.00,Fog-Snow,Snow,20,2012-12-20 21:07:00
3:36 PM,32.0,30.2,93,29.48,0.5,North,17.3,24.2,0.00,Fog-Snow,Snow,10,2012-12-20 21:36:00
3:54 PM,32.0,30.0,92,29.52,0.8,North,17.3,24.2,0.00,Snow,Light Snow,10,2012-12-20 21:54:00
4:23 PM,32.0,30.2,93,29.47,0.8,North,15.0,27.6,0.00,Snow,Light Snow,10,2012-12-20 22:23:00
4:54 PM,32.0,30.0,92,29.52,1.0,North,16.1,-,0.00,Snow,Light Snow,10,2012-12-20 22:54:00
5:21 PM,32.0,30.2,93,29.47,1.0,North,19.6,26.5,0.00,Snow,Light Snow,10,2012-12-20 23:21:00
5:54 PM,32.0,30.0,92,29.52,1.0,North,17.3,25.3,0.00,Snow,Light Snow,360,2012-12-20 23:54:00
6:54 PM,32.0,28.9,88,29.53,1.5,North,16.1,-,0.00,Snow,Light Snow,360,2012-12-21 00:54:00
7:18 PM,32.0,28.4,87,29.49,2.0,North,19.6,25.3,0.00,Snow,Light Snow,350,2012-12-21 01:18:00
7:21 PM,32.0,28.4,87,29.49,1.8,North,20.7,-,0.00,Snow,Light Snow,350,2012-12-21 01:21:00
7:28 PM,32.0,28.4,87,29.49,2.0,North,19.6,-,0.00,Snow,Light Snow,350,2012-12-21 01:28:00
7:47 PM,32.0,28.4,87,29.49,3.0,North,18.4,25.3,0.00,Snow,Light Snow,350,2012-12-21 01:47:00
7:54 PM,32.0,28.0,85,29.54,4.0,North,19.6,28.8,0.00,Snow,Light Snow,350,2012-12-21 01:54:00
8:54 PM,32.0,28.0,85,29.55,3.0,North,18.4,31.1,0.00,Snow,Light Snow,350,2012-12-21 02:54:00
9:54 PM,30.9,27.0,85,29.55,3.0,NNW,19.6,31.1,0.00,Snow,Light Snow,340,2012-12-21 03:54:00
10:54 PM,30.9,27.0,85,29.55,6.0,NNW,18.4,31.1,0.00,,Overcast,340,2012-12-21 04:54:00
11:42 PM,30.2,26.6,86,29.51,2.5,NNW,20.7,28.8,0.00,Snow,Light Snow,340,2012-12-21 05:42:00
11:54 PM,30.9,27.0,85,29.56,3.0,NNW,20.7,33.4,0.00,Snow,Light Snow,340,2012-12-21 05:54:00